Quathiaski Cove, Canada
Current Conditions -  °F | °C
As of 9:00 PM on Monday 20 Oct 2014 (Local Time) from CYBL Reporting Station
Haze Haze  
Wind Chill: 52°   Ceiling: 200
Heat Index: 52°   Visibility: 0.75mi
Dew Point: 52°   Wind: 5mph
Humidity: 100%   Direction: 100°E
Pressure: 29.67"   Gusts: NA
Location:  50.05°N, 125.18°W
Report Text: CYBL 210400Z 10004KT 060V120 3/4SM BR VV002 11/11 A2967 RMK FG8 LAST OBS. /NEXT 211300UTC SLP049
Loading
Personal Weather Stations






























Interactive Weather Map
Tropical Storm Tracking
New forecast layout! Learn more

10-Day Weather Forecast

Advertisements
Track Severe Weather on mobile